createdAt,value
2023-04-16T00:00:57.525Z,6.0996
2023-04-16T00:01:58.514Z,6.1166
2023-04-16T00:02:58.606Z,6.1184
2023-04-16T00:03:59.514Z,6.1197
2023-04-16T00:05:00.413Z,6.1088
2023-04-16T00:06:01.493Z,6.1059
2023-04-16T00:07:02.286Z,6.1106
2023-04-16T00:08:02.956Z,6.1132
2023-04-16T00:09:03.974Z,6.0893
2023-04-16T00:10:04.440Z,6.0814
2023-04-16T00:11:05.427Z,6.0890
2023-04-16T00:12:05.967Z,6.0845
2023-04-16T00:13:06.634Z,6.0928
2023-04-16T00:14:07.312Z,6.0976
2023-04-16T00:15:07.866Z,6.1448
2023-04-16T00:16:08.652Z,6.1297
2023-04-16T00:17:09.665Z,6.1325
2023-04-16T00:18:10.326Z,6.1223
2023-04-16T00:19:11.660Z,6.1373
2023-04-16T00:20:11.538Z,6.1222
2023-04-16T00:21:12.280Z,6.1216
2023-04-16T00:22:12.875Z,6.1297
2023-04-16T00:23:13.518Z,6.1372
2023-04-16T00:24:14.500Z,6.1414
2023-04-16T00:25:15.561Z,6.1302
2023-04-16T00:26:16.166Z,6.1256
2023-04-16T00:27:16.979Z,6.1281
2023-04-16T00:28:17.560Z,6.1179
2023-04-16T00:29:18.840Z,6.1236
2023-04-16T00:30:19.811Z,6.1188
2023-04-16T00:31:20.826Z,6.1182
2023-04-16T00:32:21.142Z,6.1186
2023-04-16T00:33:22.109Z,6.1161
2023-04-16T00:34:22.761Z,6.1106
2023-04-16T00:35:23.302Z,6.1026
2023-04-16T00:36:24.137Z,6.1008
2023-04-16T00:37:24.781Z,6.1052
2023-04-16T00:38:25.799Z,6.1107
2023-04-16T00:39:26.479Z,6.1007
2023-04-16T00:40:27.283Z,6.0993
2023-04-16T00:41:27.900Z,6.1072
2023-04-16T00:42:29.048Z,6.1153
2023-04-16T00:44:29.432Z,6.1105
2023-04-16T00:45:30.198Z,6.1216
2023-04-16T00:46:31.231Z,6.1121
2023-04-16T00:47:31.831Z,6.1223
2023-04-16T00:48:32.651Z,6.1173
2023-04-16T00:49:32.831Z,6.1162
2023-04-16T00:50:33.460Z,6.1144
2023-04-16T00:51:34.155Z,6.1056
2023-04-16T00:52:34.645Z,6.1045
2023-04-16T00:53:35.321Z,6.1129
2023-04-16T00:54:35.928Z,6.1062
2023-04-16T00:55:36.388Z,6.1201
2023-04-16T00:56:37.055Z,6.1157
2023-04-16T00:57:37.610Z,6.1232
2023-04-16T00:58:38.010Z,6.1180
2023-04-16T00:59:38.680Z,6.1229
2023-04-16T01:00:40.081Z,6.1189
2023-04-16T01:01:41.225Z,6.1093
2023-04-16T01:02:42.666Z,6.1132
2023-04-16T01:03:43.675Z,6.1128
2023-04-16T01:04:43.472Z,6.1205
2023-04-16T01:05:44.127Z,6.1278
2023-04-16T01:06:44.482Z,6.1094
2023-04-16T01:07:45.230Z,6.1000
2023-04-16T01:08:45.713Z,6.0882
2023-04-16T01:09:45.944Z,6.0965
2023-04-16T01:10:46.635Z,6.1098
2023-04-16T01:11:46.972Z,6.1216
2023-04-16T01:12:47.647Z,6.1227
2023-04-16T01:13:48.256Z,6.1230
2023-04-16T01:14:48.797Z,6.1325
2023-04-16T01:15:49.628Z,6.1254
2023-04-16T01:16:50.369Z,6.1241
2023-04-16T01:17:51.218Z,6.1327
2023-04-16T01:18:51.992Z,6.1324
2023-04-16T01:19:53.056Z,6.1284
2023-04-16T01:20:53.692Z,6.1344
2023-04-16T01:21:54.396Z,6.1233
2023-04-16T01:22:55.189Z,6.1195
2023-04-16T01:23:55.842Z,6.1067
2023-04-16T01:24:56.589Z,6.1173
2023-04-16T01:25:57.205Z,6.1293
2023-04-16T01:26:57.908Z,6.1177
2023-04-16T01:27:58.293Z,6.1059
2023-04-16T01:28:58.896Z,6.1220
2023-04-16T01:29:59.603Z,6.1088
2023-04-16T01:31:00.067Z,6.1032
2023-04-16T01:32:01.196Z,6.1191
2023-04-16T01:33:02.232Z,6.1220
2023-04-16T01:34:02.711Z,6.1058
2023-04-16T01:35:03.379Z,6.1154
2023-04-16T01:36:03.817Z,6.1048
2023-04-16T01:37:04.428Z,6.0941
2023-04-16T01:38:05.262Z,6.0901
2023-04-16T01:39:05.708Z,6.0853
2023-04-16T01:40:05.764Z,6.0834
2023-04-16T01:41:06.339Z,6.0853
2023-04-16T01:42:06.884Z,6.0944
2023-04-16T01:43:07.498Z,6.0856
2023-04-16T01:44:07.601Z,6.0986
2023-04-16T01:45:08.385Z,6.0853
2023-04-16T01:46:09.174Z,6.0909
2023-04-16T01:47:09.756Z,6.0862
2023-04-16T01:48:10.500Z,6.0886
2023-04-16T01:49:11.354Z,6.0941
2023-04-16T01:50:12.259Z,6.0799
2023-04-16T01:51:12.944Z,6.0858
2023-04-16T01:52:13.774Z,6.0920
2023-04-16T01:53:14.229Z,6.0847
2023-04-16T01:54:14.936Z,6.0887
2023-04-16T01:55:15.404Z,6.0904
2023-04-16T01:56:16.122Z,6.0953
2023-04-16T01:57:16.829Z,6.0932
2023-04-16T01:58:17.213Z,6.0870
2023-04-16T01:59:18.156Z,6.0766
2023-04-16T02:00:18.844Z,6.0701
2023-04-16T02:01:19.558Z,6.0594
2023-04-16T02:02:19.904Z,6.0580
2023-04-16T02:03:20.211Z,6.0572
2023-04-16T02:04:20.968Z,6.0595
2023-04-16T02:05:21.510Z,6.0614
2023-04-16T02:06:22.187Z,6.0670
2023-04-16T02:07:22.843Z,6.0521
2023-04-16T02:08:23.553Z,6.0485
2023-04-16T02:11:24.340Z,6.0454
2023-04-16T02:12:24.979Z,6.0468
2023-04-16T02:13:25.469Z,6.0484
2023-04-16T02:14:26.283Z,6.0446
2023-04-16T02:15:26.853Z,6.0369
2023-04-16T02:16:27.412Z,6.0256
2023-04-16T02:17:28.597Z,6.0226
2023-04-16T02:18:29.453Z,6.0142
2023-04-16T02:19:30.373Z,6.0307
2023-04-16T02:20:30.991Z,6.0295
2023-04-16T02:21:31.345Z,6.0232
2023-04-16T02:22:32.015Z,6.0223
2023-04-16T02:23:32.820Z,6.0185
2023-04-16T02:24:33.985Z,6.0192
2023-04-16T02:25:34.914Z,6.0017
2023-04-16T02:26:35.649Z,6.0136
2023-04-16T02:27:36.232Z,6.0226
2023-04-16T02:28:36.950Z,6.0245
2023-04-16T02:29:37.459Z,6.0139
2023-04-16T02:30:38.074Z,6.0112
2023-04-16T02:31:38.775Z,6.0077
2023-04-16T02:32:39.757Z,6.0122
2023-04-16T02:33:40.711Z,6.0078
2023-04-16T02:34:41.437Z,6.0067
2023-04-16T02:35:41.844Z,6.0081
2023-04-16T02:36:42.484Z,5.9983
2023-04-16T02:37:43.120Z,5.9938
2023-04-16T02:38:43.792Z,5.9880
2023-04-16T02:39:44.016Z,5.9893
2023-04-16T02:40:44.657Z,5.9849
2023-04-16T02:41:45.415Z,5.9750
2023-04-16T02:42:45.958Z,5.9722
2023-04-16T02:43:46.326Z,5.9662
2023-04-16T02:44:46.979Z,5.9602
2023-04-16T02:45:47.760Z,5.9665
2023-04-16T02:46:48.709Z,5.9715
2023-04-16T02:47:49.634Z,5.9631
2023-04-16T02:48:50.752Z,5.9607
2023-04-16T02:49:51.574Z,5.9629
2023-04-16T02:50:52.458Z,5.9753
2023-04-16T02:51:52.870Z,5.9581
2023-04-16T02:52:53.613Z,5.9544
2023-04-16T02:53:54.040Z,5.9449
2023-04-16T02:54:54.722Z,5.9280
2023-04-16T02:55:55.391Z,5.9292
2023-04-16T02:56:55.872Z,5.9399
2023-04-16T02:57:56.795Z,5.9352
2023-04-16T02:58:57.437Z,5.9263
2023-04-16T02:59:58.489Z,5.9290
2023-04-16T03:00:58.606Z,5.9217
2023-04-16T03:02:00.173Z,5.9299
2023-04-16T03:03:00.276Z,5.9349
2023-04-16T03:04:01.313Z,5.9271
2023-04-16T03:05:02.497Z,5.9174
2023-04-16T03:06:03.148Z,5.9165
2023-04-16T03:07:04.151Z,5.9332
2023-04-16T03:08:04.725Z,5.9349
2023-04-16T03:09:05.461Z,5.9235
2023-04-16T03:10:05.529Z,5.9029
2023-04-16T03:11:06.163Z,5.8993
2023-04-16T03:12:06.849Z,5.9069
2023-04-16T03:13:07.316Z,5.9023
2023-04-16T03:14:08.328Z,5.9039
2023-04-16T03:15:09.620Z,5.8931
2023-04-16T03:16:10.875Z,5.9028
2023-04-16T03:17:12.042Z,5.9026
2023-04-16T03:18:12.988Z,5.9146
2023-04-16T03:19:13.314Z,5.9018
2023-04-16T03:20:14.094Z,5.8978
2023-04-16T03:21:14.735Z,5.8973
2023-04-16T03:22:15.431Z,5.8860
2023-04-16T03:23:16.024Z,5.8880
2023-04-16T03:24:16.532Z,5.8984
2023-04-16T03:25:16.552Z,5.8997
2023-04-16T03:26:17.413Z,5.9094
2023-04-16T03:27:18.029Z,5.9058
2023-04-16T03:28:18.601Z,5.8995
2023-04-16T03:29:19.333Z,5.8829
2023-04-16T03:30:20.336Z,5.8766
2023-04-16T03:32:21.142Z,5.8910
2023-04-16T03:33:21.202Z,5.8833
2023-04-16T03:34:21.844Z,5.8781
2023-04-16T03:35:22.480Z,5.8873
2023-04-16T03:36:23.248Z,5.8828
2023-04-16T03:37:24.173Z,5.8837
2023-04-16T03:38:24.958Z,5.8760
2023-04-16T03:39:25.493Z,5.8888
2023-04-16T03:40:26.130Z,5.8950
2023-04-16T03:41:26.714Z,5.8952
2023-04-16T03:42:27.299Z,5.8819
2023-04-16T03:43:27.695Z,5.8810
2023-04-16T03:44:28.512Z,5.8848
2023-04-16T03:45:29.020Z,5.8873
2023-04-16T03:46:29.807Z,5.8890
2023-04-16T03:47:31.038Z,5.8846
2023-04-16T03:48:31.994Z,5.8988
2023-04-16T03:49:32.030Z,5.8872
2023-04-16T03:50:32.550Z,5.8838
2023-04-16T03:51:33.381Z,5.8848
2023-04-16T03:52:34.144Z,5.8727
2023-04-16T03:53:34.707Z,5.8669
2023-04-16T03:54:35.205Z,5.8576
2023-04-16T03:55:35.996Z,5.8570
2023-04-16T03:56:36.722Z,5.8514
2023-04-16T03:57:37.637Z,5.8528
2023-04-16T03:58:38.219Z,5.8417
2023-04-16T03:59:39.102Z,5.8553
2023-04-16T04:00:39.971Z,5.8623
2023-04-16T04:01:40.830Z,5.8636
2023-04-16T04:02:41.613Z,5.8653
2023-04-16T04:03:42.396Z,5.8464
2023-04-16T04:04:43.747Z,5.8409
2023-04-16T04:05:43.707Z,5.8467
2023-04-16T04:06:44.345Z,5.8444
2023-04-16T04:07:45.099Z,5.8438
2023-04-16T04:08:45.643Z,5.8389
2023-04-16T04:09:46.429Z,5.8378
2023-04-16T04:10:49.539Z,5.8397
2023-04-16T04:11:51.099Z,5.8513
2023-04-16T04:12:51.852Z,5.8563
2023-04-16T04:16:57.149Z,5.8415
2023-04-16T04:17:57.415Z,5.8429
2023-04-16T04:18:58.364Z,5.8478
2023-04-16T04:20:03.204Z,5.8359
2023-04-16T04:21:03.817Z,5.8371
2023-04-16T04:22:04.469Z,5.8358
2023-04-16T04:23:05.230Z,5.8390
2023-04-16T04:24:05.764Z,5.8260
2023-04-16T04:25:06.104Z,5.8264
2023-04-16T04:26:06.979Z,5.8269
2023-04-16T04:27:07.638Z,5.8259
2023-04-16T04:28:08.269Z,5.8461
2023-04-16T04:29:09.243Z,5.8431
2023-04-16T04:30:10.094Z,5.8514
2023-04-16T04:31:11.192Z,5.8283
2023-04-16T04:32:11.909Z,5.8157
2023-04-16T04:33:12.613Z,5.8067
2023-04-16T04:34:13.496Z,5.8160
2023-04-16T04:35:14.358Z,5.8227
2023-04-16T04:36:14.969Z,5.8330
2023-04-16T04:37:15.714Z,5.8448
2023-04-16T04:38:16.349Z,5.8248
2023-04-16T04:39:16.296Z,5.8456
2023-04-16T04:40:17.210Z,5.8561
2023-04-16T04:41:17.878Z,5.8482
2023-04-16T04:42:18.719Z,5.8406
2023-04-16T04:43:19.382Z,5.8358
2023-04-16T04:44:19.848Z,5.8383
2023-04-16T04:45:20.503Z,5.8307
2023-04-16T04:46:21.463Z,5.8253
2023-04-16T04:49:22.635Z,5.7878
2023-04-16T04:50:23.390Z,5.7973
2023-04-16T04:51:24.747Z,5.8074
2023-04-16T04:52:25.408Z,5.8153
2023-04-16T04:53:26.616Z,5.7990
2023-04-16T04:54:27.100Z,5.7875
2023-04-16T04:55:27.959Z,5.7924
2023-04-16T04:56:28.100Z,5.7896
2023-04-16T04:57:28.471Z,5.7854
2023-04-16T04:58:29.385Z,5.8032
2023-04-16T04:59:30.136Z,5.8028
2023-04-16T05:00:30.752Z,5.7971
2023-04-16T05:01:30.823Z,5.7965
2023-04-16T05:02:31.618Z,5.7971
2023-04-16T05:03:31.987Z,5.7983
2023-04-16T05:04:32.353Z,5.7929
2023-04-16T05:05:32.348Z,5.7780
2023-04-16T05:06:33.032Z,5.7815
2023-04-16T05:07:33.438Z,5.8124
2023-04-16T05:08:34.130Z,5.8219
2023-04-16T05:09:34.875Z,5.8183
2023-04-16T05:10:35.544Z,5.8155
2023-04-16T05:11:36.323Z,5.8192
2023-04-16T05:12:36.797Z,5.8389
2023-04-16T05:13:37.658Z,5.8448
2023-04-16T05:14:38.384Z,5.8472
2023-04-16T05:15:38.679Z,5.8454
2023-04-16T05:16:39.583Z,5.8463
2023-04-16T05:17:40.013Z,5.8404
2023-04-16T05:18:41.302Z,5.8372
2023-04-16T05:19:41.708Z,5.8292
2023-04-16T05:20:42.937Z,5.8313
2023-04-16T05:21:42.908Z,5.8473
2023-04-16T05:22:43.520Z,5.8529
2023-04-16T05:23:44.366Z,5.8416
2023-04-16T05:24:45.082Z,5.8491
2023-04-16T05:25:45.793Z,5.8480
2023-04-16T05:26:46.575Z,5.8520
2023-04-16T05:27:47.588Z,5.8390
2023-04-16T05:28:48.178Z,5.8428
2023-04-16T05:29:49.142Z,5.8393
2023-04-16T05:30:49.715Z,5.8547
2023-04-16T05:31:50.753Z,5.8783
2023-04-16T05:32:51.647Z,5.8686
2023-04-16T05:33:52.842Z,5.8535
2023-04-16T05:34:53.479Z,5.8599
2023-04-16T05:35:54.837Z,5.8583
2023-04-16T05:36:55.775Z,5.8558
2023-04-16T05:37:56.800Z,5.8493
2023-04-16T05:38:57.313Z,5.8526
2023-04-16T05:39:58.084Z,5.8607
2023-04-16T05:40:58.815Z,5.8552
2023-04-16T05:41:59.539Z,5.8754
2023-04-16T05:43:00.326Z,5.8937
2023-04-16T05:44:01.131Z,5.8869
2023-04-16T05:45:01.732Z,5.8933
2023-04-16T05:46:02.277Z,5.8851
2023-04-16T05:47:03.244Z,5.8850
2023-04-16T05:48:03.983Z,5.8653
2023-04-16T05:50:04.608Z,5.8628
2023-04-16T05:51:05.827Z,5.8721
2023-04-16T05:52:06.533Z,5.8813
2023-04-16T05:53:07.056Z,5.8805
2023-04-16T05:54:07.830Z,5.8771
2023-04-16T05:55:08.449Z,5.8623
2023-04-16T05:56:08.969Z,5.8620
2023-04-16T05:57:10.359Z,5.8678
2023-04-16T05:58:10.642Z,5.8737
2023-04-16T05:59:11.334Z,5.8860
2023-04-16T06:00:11.317Z,5.8854
2023-04-16T06:01:11.770Z,5.8975
2023-04-16T06:02:12.666Z,5.8960
2023-04-16T06:03:14.116Z,5.8972
2023-04-16T06:04:14.174Z,5.8855
2023-04-16T06:06:14.792Z,5.8896
2023-04-16T06:07:15.753Z,5.9023
2023-04-16T06:08:16.480Z,5.8822
2023-04-16T06:09:17.666Z,5.8640
2023-04-16T06:10:18.451Z,5.8601
2023-04-16T06:11:22.527Z,5.8397
2023-04-16T06:12:20.871Z,5.8421
2023-04-16T06:13:21.458Z,5.8546
2023-04-16T06:14:22.452Z,5.8429
2023-04-16T06:15:23.836Z,5.8421
2023-04-16T06:16:23.934Z,5.8400
2023-04-16T06:17:41.203Z,5.8472
2023-04-16T06:18:24.569Z,5.8134
2023-04-16T06:19:25.702Z,5.8204
2023-04-16T06:20:26.195Z,5.8257
2023-04-16T06:21:27.006Z,5.8307
2023-04-16T06:22:27.109Z,5.8678
2023-04-16T06:23:28.181Z,5.8638
2023-04-16T06:24:29.132Z,5.8565
2023-04-16T06:25:30.162Z,5.8546
2023-04-16T06:26:31.468Z,5.8647
2023-04-16T06:28:32.332Z,5.8553
2023-04-16T06:29:41.131Z,5.8847
2023-04-16T06:30:34.459Z,5.8913
2023-04-16T06:31:34.693Z,5.8782
2023-04-16T06:32:35.482Z,5.8801
2023-04-16T06:33:36.699Z,5.8853
2023-04-16T06:34:37.070Z,5.9071
2023-04-16T06:37:41.958Z,5.9499
2023-04-16T06:38:42.578Z,5.9533
2023-04-16T06:39:43.638Z,5.9860
2023-04-16T06:40:44.829Z,5.9462
2023-04-16T06:43:48.369Z,5.9754
2023-04-16T06:49:54.184Z,6.0199
2023-04-16T06:57:02.299Z,6.0424
2023-04-16T06:58:03.421Z,5.9934
2023-04-16T06:59:03.741Z,5.9630
2023-04-16T07:01:04.148Z,5.9221
2023-04-16T07:02:04.399Z,5.9564
2023-04-16T07:03:05.392Z,5.9636
2023-04-16T07:04:05.709Z,5.9875
2023-04-16T07:05:05.608Z,5.9535
2023-04-16T07:06:07.276Z,5.9690
2023-04-16T07:07:07.333Z,5.9572
2023-04-16T07:09:07.454Z,5.9297
2023-04-16T07:10:08.373Z,5.9317
2023-04-16T07:11:08.542Z,5.8763
2023-04-16T07:12:08.694Z,5.8760
2023-04-16T07:13:09.369Z,5.8361
2023-04-16T07:14:10.735Z,5.8230
2023-04-16T07:15:11.327Z,5.8248
2023-04-16T07:16:11.705Z,5.8669
2023-04-16T07:19:14.209Z,5.9281
2023-04-16T07:20:14.710Z,5.9008
2023-04-16T07:21:16.141Z,5.8543
2023-04-16T07:23:17.000Z,5.7706
2023-04-16T07:24:17.754Z,5.7302
2023-04-16T07:25:18.033Z,5.7676
2023-04-16T07:26:20.164Z,5.7838
2023-04-16T07:31:25.601Z,5.7785
2023-04-16T07:32:26.424Z,5.8050
2023-04-16T07:33:26.954Z,5.8649
2023-04-16T07:34:27.894Z,5.8819
2023-04-16T07:35:28.658Z,5.8545
2023-04-16T07:40:30.970Z,5.7962
2023-04-16T07:41:32.008Z,5.7228
2023-04-16T07:45:35.350Z,5.6358
2023-04-16T07:46:46.159Z,5.6847
2023-04-16T07:47:37.341Z,5.7141
2023-04-16T07:48:38.335Z,5.7329
2023-04-16T07:49:39.302Z,5.7695
2023-04-16T07:50:39.993Z,5.8280
2023-04-16T07:51:40.535Z,5.8280
2023-04-16T07:52:42.470Z,5.8607
2023-04-16T07:53:42.724Z,5.8328
2023-04-16T07:57:45.530Z,5.8222
2023-04-16T07:58:46.747Z,5.8147
2023-04-16T08:03:52.853Z,5.9065
2023-04-16T08:04:53.564Z,5.9164
2023-04-16T08:05:54.354Z,5.8816
2023-04-16T08:13:04.963Z,5.7756
2023-04-16T08:14:05.548Z,5.8480
2023-04-16T08:15:06.136Z,5.8453
2023-04-16T08:16:06.776Z,5.8658
2023-04-16T08:17:08.825Z,5.8734
2023-04-16T08:18:09.518Z,5.8726
2023-04-16T08:19:11.038Z,5.8994
2023-04-16T08:25:16.654Z,5.8944
2023-04-16T08:26:17.451Z,5.8516
2023-04-16T08:27:20.516Z,5.8585
2023-04-16T08:28:20.563Z,5.8775
2023-04-16T08:29:21.365Z,5.8903
2023-04-16T08:30:21.602Z,5.9527
2023-04-16T08:31:22.386Z,5.9684
2023-04-16T08:32:24.421Z,5.9792
2023-04-16T08:33:26.384Z,5.9642
2023-04-16T08:34:28.455Z,5.9689
2023-04-16T08:35:30.511Z,5.9450
2023-04-16T08:36:32.828Z,5.9508
2023-04-16T08:37:34.217Z,6.0293
2023-04-16T08:38:35.458Z,6.0418
2023-04-16T08:39:45.026Z,6.0686
2023-04-16T08:40:45.494Z,6.0074
2023-04-16T08:41:46.878Z,6.0035
2023-04-16T08:43:49.402Z,5.9712
2023-04-16T08:46:51.419Z,6.0481
2023-04-16T08:47:52.128Z,6.0878
2023-04-16T08:48:52.323Z,6.1160
2023-04-16T08:49:53.422Z,6.0996
2023-04-16T08:50:53.902Z,6.0756
2023-04-16T08:51:55.253Z,6.0930
2023-04-16T08:52:56.136Z,6.0764
2023-04-16T08:53:56.525Z,6.0172
2023-04-16T08:54:59.549Z,5.9327
2023-04-16T08:55:59.124Z,5.9238
2023-04-16T08:57:00.014Z,5.9892
2023-04-16T08:58:01.169Z,5.9867
2023-04-16T08:59:01.663Z,6.0570
2023-04-16T09:00:02.284Z,5.9703
2023-04-16T09:01:02.810Z,5.9918
2023-04-16T09:02:03.845Z,6.0388
2023-04-16T09:03:04.915Z,5.9483
2023-04-16T09:04:05.709Z,5.9729
2023-04-16T09:05:05.358Z,6.0317
2023-04-16T09:06:06.072Z,5.9473
2023-04-16T09:07:06.463Z,5.9609
2023-04-16T09:08:07.030Z,5.9816
2023-04-16T09:09:08.256Z,6.0078
2023-04-16T09:10:08.813Z,5.9817
2023-04-16T09:11:09.411Z,6.0426
2023-04-16T09:12:09.983Z,6.1014
2023-04-16T09:13:10.488Z,6.1220
2023-04-16T09:14:11.198Z,6.1800
2023-04-16T09:15:11.914Z,6.1503
2023-04-16T09:18:13.976Z,6.1471
2023-04-16T09:19:15.301Z,6.1843
2023-04-16T09:20:16.176Z,6.0896
2023-04-16T09:21:16.698Z,6.0760
2023-04-16T09:22:16.972Z,6.0540
2023-04-16T09:23:17.575Z,6.1424
2023-04-16T09:24:18.820Z,6.1041
2023-04-16T09:25:20.012Z,6.1330
2023-04-16T09:28:24.339Z,6.1895
2023-04-16T09:29:25.118Z,6.2448
2023-04-16T09:30:25.808Z,6.2243
2023-04-16T09:31:28.113Z,6.2279
2023-04-16T09:32:34.734Z,6.2346
2023-04-16T09:33:35.147Z,6.1743
2023-04-16T09:34:36.418Z,6.1814
2023-04-16T09:35:36.912Z,6.2875
2023-04-16T09:36:37.649Z,6.1874
2023-04-16T09:37:38.160Z,6.2799
2023-04-16T09:38:38.920Z,6.3518
2023-04-16T09:39:39.787Z,6.2443
2023-04-16T09:40:40.665Z,6.2724
2023-04-16T09:41:41.564Z,6.1813
2023-04-16T09:42:42.069Z,6.1996
2023-04-16T09:43:42.476Z,6.1966
2023-04-16T09:44:43.251Z,6.1975
2023-04-16T09:45:43.572Z,6.1831
2023-04-16T09:46:43.925Z,6.1437
2023-04-16T09:47:45.144Z,6.1631
2023-04-16T09:48:46.009Z,6.2410
2023-04-16T09:49:46.226Z,6.2582
2023-04-16T09:50:46.643Z,6.2121
2023-04-16T09:51:47.183Z,6.2011
2023-04-16T09:52:48.200Z,6.2185
2023-04-16T09:53:48.716Z,6.1948
2023-04-16T09:54:49.486Z,6.1868
2023-04-16T09:55:50.133Z,6.2481
2023-04-16T09:56:50.711Z,6.2616
2023-04-16T09:57:51.482Z,6.2166
2023-04-16T09:58:52.457Z,6.2117
2023-04-16T09:59:53.017Z,6.2066
2023-04-16T10:00:53.256Z,6.2650
2023-04-16T10:02:14.197Z,6.2933
2023-04-16T10:02:54.008Z,6.3323
2023-04-16T10:03:54.637Z,6.3318
2023-04-16T10:04:55.574Z,6.3845
2023-04-16T10:05:56.759Z,6.3497
2023-04-16T10:06:57.454Z,6.3611
2023-04-16T10:07:58.458Z,6.4270
2023-04-16T10:08:59.820Z,6.5028
2023-04-16T10:10:00.182Z,6.4341
2023-04-16T10:12:01.489Z,6.3935
2023-04-16T10:13:01.595Z,6.3635
2023-04-16T10:14:03.314Z,6.4080
2023-04-16T10:15:03.842Z,6.4350
2023-04-16T10:16:05.593Z,6.5188
2023-04-16T10:17:07.360Z,6.5199
2023-04-16T10:18:08.382Z,6.4565
2023-04-16T10:19:09.172Z,6.4862
2023-04-16T10:20:09.984Z,6.5584
2023-04-16T10:21:10.743Z,6.6105
2023-04-16T10:22:12.712Z,6.6712
2023-04-16T10:23:14.848Z,6.6108
2023-04-16T10:24:16.220Z,6.5682
2023-04-16T10:25:17.350Z,6.5784
2023-04-16T10:31:25.476Z,6.5446
2023-04-16T10:32:26.124Z,6.5998
2023-04-16T10:33:27.805Z,6.6281
2023-04-16T10:34:28.312Z,6.6650
2023-04-16T10:35:29.370Z,6.6674
2023-04-16T10:37:30.983Z,6.7547
2023-04-16T10:38:31.917Z,6.7734
2023-04-16T10:39:32.973Z,6.8214
2023-04-16T10:40:33.946Z,6.8280
2023-04-16T10:41:34.548Z,6.8515
2023-04-16T10:43:36.438Z,6.8058
2023-04-16T10:45:38.290Z,6.9473
2023-04-16T10:46:38.456Z,7.0032
2023-04-16T10:47:38.797Z,7.0599
2023-04-16T10:51:48.557Z,7.1110
2023-04-16T10:52:49.216Z,6.9519
2023-04-16T10:53:50.245Z,7.0315
2023-04-16T10:54:51.718Z,6.9125
2023-04-16T10:55:53.446Z,7.0007
2023-04-16T10:56:54.515Z,7.0261
2023-04-16T10:57:54.879Z,7.0820
2023-04-16T10:58:55.563Z,7.1939
2023-04-16T10:59:56.304Z,7.1402
2023-04-16T11:00:57.077Z,7.1883
2023-04-16T11:01:58.627Z,7.1235
2023-04-16T11:03:00.538Z,7.1077
2023-04-16T11:04:00.903Z,7.1160
2023-04-16T11:05:01.926Z,6.9969
2023-04-16T11:07:02.989Z,7.1985
2023-04-16T11:08:03.982Z,7.1989
2023-04-16T11:09:05.021Z,7.2465
2023-04-16T11:10:05.868Z,7.1303
2023-04-16T11:11:06.888Z,7.0677
2023-04-16T11:12:07.852Z,6.9822
2023-04-16T11:13:08.542Z,6.9783
2023-04-16T11:14:16.405Z,7.1389
2023-04-16T11:15:16.686Z,7.0974
2023-04-16T11:16:17.241Z,7.0664
2023-04-16T11:17:22.134Z,7.0558
2023-04-16T11:18:23.027Z,7.0902
2023-04-16T11:19:24.155Z,7.0871
2023-04-16T11:20:25.080Z,7.1178
2023-04-16T11:21:25.362Z,7.1082
2023-04-16T11:22:25.928Z,7.1085
2023-04-16T11:26:32.397Z,7.0978
2023-04-16T11:27:33.541Z,7.1313
2023-04-16T11:28:35.096Z,7.1758
2023-04-16T11:29:35.847Z,7.1973
2023-04-16T11:30:36.555Z,7.2113
2023-04-16T11:31:37.677Z,7.1074
2023-04-16T11:32:38.550Z,6.9746
2023-04-16T11:33:39.409Z,7.0187
2023-04-16T11:34:39.978Z,6.9975
2023-04-16T11:35:40.731Z,6.9878
2023-04-16T11:36:41.094Z,7.0122
2023-04-16T11:37:45.822Z,7.0359
2023-04-16T11:40:46.124Z,6.8531
2023-04-16T11:41:47.276Z,6.9011
2023-04-16T11:42:52.956Z,6.8938
2023-04-16T11:43:53.024Z,6.9267
2023-04-16T11:44:53.663Z,6.9327
2023-04-16T11:45:54.508Z,6.9285
2023-04-16T11:46:58.886Z,6.9105
2023-04-16T11:47:59.904Z,6.8597
2023-04-16T11:49:00.736Z,6.8593
2023-04-16T11:50:05.704Z,6.8504
2023-04-16T11:51:06.617Z,6.8894
2023-04-16T11:52:07.256Z,6.9623
2023-04-16T11:53:07.763Z,7.0176
2023-04-16T11:54:11.138Z,7.0464
2023-04-16T11:55:08.804Z,7.0542
2023-04-16T11:56:09.379Z,7.0729
2023-04-16T11:57:09.936Z,7.0976
2023-04-16T11:58:10.559Z,7.1165
2023-04-16T11:59:11.514Z,7.0801
2023-04-16T12:00:12.616Z,7.0761
2023-04-16T12:01:12.775Z,7.1215
2023-04-16T12:02:13.523Z,7.1523
2023-04-16T12:03:14.879Z,7.2108
2023-04-16T12:04:20.213Z,7.1810
2023-04-16T12:05:20.495Z,7.2327
2023-04-16T12:06:22.228Z,7.3222
2023-04-16T12:07:21.374Z,7.3463
2023-04-16T12:08:22.124Z,7.2791
2023-04-16T12:09:23.551Z,7.2589
2023-04-16T12:10:25.581Z,7.2362
2023-04-16T12:11:27.246Z,7.2562
2023-04-16T12:12:27.988Z,7.2359
2023-04-16T12:13:27.918Z,7.3503
2023-04-16T12:14:28.080Z,7.4516
2023-04-16T12:15:29.894Z,7.3869
2023-04-16T12:16:31.162Z,7.3891
2023-04-16T12:17:31.435Z,7.4752
2023-04-16T12:18:31.544Z,7.4953
2023-04-16T12:19:32.049Z,7.5466
2023-04-16T12:20:33.612Z,7.6189
2023-04-16T12:21:35.098Z,7.6078
2023-04-16T12:22:36.857Z,7.5294
2023-04-16T12:23:35.843Z,7.5044
2023-04-16T12:27:42.517Z,7.4112
2023-04-16T12:28:44.193Z,7.3923
2023-04-16T12:29:44.952Z,7.3343
2023-04-16T12:32:46.296Z,7.2625
2023-04-16T12:33:47.168Z,7.2712
2023-04-16T12:34:49.863Z,7.2763
2023-04-16T12:35:49.986Z,7.1929
2023-04-16T12:36:51.348Z,7.2787
2023-04-16T12:38:52.620Z,7.3199
2023-04-16T12:39:53.259Z,7.2780
2023-04-16T12:40:54.022Z,7.4230
2023-04-16T12:45:00.487Z,7.7067
2023-04-16T12:50:03.478Z,7.7262
2023-04-16T12:51:04.324Z,7.6429
2023-04-16T12:52:04.459Z,7.6005
2023-04-16T12:53:06.162Z,7.6233
2023-04-16T12:54:07.114Z,7.6140
2023-04-16T12:55:06.476Z,7.6365
2023-04-16T12:56:07.234Z,7.6621
2023-04-16T12:57:08.545Z,7.7326
2023-04-16T12:58:11.886Z,7.7059
2023-04-16T12:59:10.531Z,7.6192
2023-04-16T13:00:10.416Z,7.6098
2023-04-16T13:01:11.232Z,7.5748
2023-04-16T13:02:11.836Z,7.6624
2023-04-16T13:03:14.240Z,7.7643
2023-04-16T13:04:14.717Z,7.8015
2023-04-16T13:05:14.764Z,7.7422
2023-04-16T13:08:17.540Z,7.6915
2023-04-16T13:09:18.920Z,7.7133
2023-04-16T13:10:19.550Z,7.7672
2023-04-16T13:11:20.278Z,7.6737
2023-04-16T13:14:22.271Z,7.7096
2023-04-16T13:15:23.144Z,7.7802
2023-04-16T13:16:23.503Z,7.7916
2023-04-16T13:17:25.033Z,7.7276
2023-04-16T13:18:25.153Z,7.7258
2023-04-16T13:19:26.204Z,7.7043
2023-04-16T13:20:27.386Z,7.7277
2023-04-16T13:21:29.067Z,7.6671
2023-04-16T13:22:29.872Z,7.5733
2023-04-16T13:24:30.570Z,7.4291
2023-04-16T13:25:32.090Z,7.3897
2023-04-16T13:26:32.356Z,7.2910
2023-04-16T13:27:34.060Z,7.3695
2023-04-16T13:28:35.984Z,7.4069
2023-04-16T13:29:35.993Z,7.4282
2023-04-16T13:30:36.521Z,7.4293
2023-04-16T13:31:37.777Z,7.4010
2023-04-16T13:32:37.845Z,7.3663
2023-04-16T13:34:38.610Z,7.3992
2023-04-16T13:42:48.459Z,7.4116
2023-04-16T13:43:48.677Z,7.5022
2023-04-16T13:49:55.348Z,7.6665
2023-04-16T13:50:55.947Z,7.5816
2023-04-16T13:51:57.375Z,7.7015
2023-04-16T13:53:57.545Z,7.7508
2023-04-16T13:55:01.341Z,7.7585
2023-04-16T13:56:02.562Z,7.9138
2023-04-16T13:57:04.262Z,7.9650
2023-04-16T13:58:05.002Z,7.8771
2023-04-16T13:59:07.082Z,7.8955
2023-04-16T14:00:08.023Z,7.8911
2023-04-16T14:01:09.019Z,7.7829
2023-04-16T14:03:10.024Z,7.8297
2023-04-16T14:06:11.554Z,7.7461
2023-04-16T14:07:12.576Z,7.7288
2023-04-16T14:08:13.711Z,7.6672
2023-04-16T14:09:15.249Z,7.6320
2023-04-16T14:10:15.547Z,7.5326
2023-04-16T14:11:16.494Z,7.5325
2023-04-16T14:12:16.966Z,7.5502
2023-04-16T14:13:18.721Z,7.5386
2023-04-16T14:14:18.938Z,7.4542
2023-04-16T14:15:19.616Z,7.4254
2023-04-16T14:16:20.698Z,7.4708
2023-04-16T14:17:21.862Z,7.5113
2023-04-16T14:18:23.583Z,7.4912
2023-04-16T14:19:24.073Z,7.5455
2023-04-16T14:20:25.474Z,7.5335
2023-04-16T14:21:26.501Z,7.5426
2023-04-16T14:22:27.305Z,7.5092
2023-04-16T14:23:28.122Z,7.4912
2023-04-16T14:24:29.447Z,7.4663
2023-04-16T14:25:29.812Z,7.4927
2023-04-16T14:26:30.790Z,7.5153
2023-04-16T14:27:31.789Z,7.4869
2023-04-16T14:28:32.940Z,7.5057
2023-04-16T14:29:33.830Z,7.4548
2023-04-16T14:30:34.707Z,7.4778
2023-04-16T14:31:35.803Z,7.5334
2023-04-16T14:32:37.292Z,7.5381
2023-04-16T14:33:38.038Z,7.5328
2023-04-16T14:34:38.900Z,7.5597
2023-04-16T14:35:40.175Z,7.5753
2023-04-16T14:36:40.932Z,7.5436
2023-04-16T14:37:41.347Z,7.4917
2023-04-16T14:38:42.152Z,7.5242
2023-04-16T14:39:43.075Z,7.5071
2023-04-16T14:40:43.733Z,7.4526
2023-04-16T14:41:45.106Z,7.4098
2023-04-16T14:42:45.387Z,7.3981